Time;durP1;ratioP1;P1;durP2;ratioP2;P2;SDS_P1;SDS_P2;PMS_P1;PMS_P2;Temp;Humidity;BMP_temperature;BMP_pressure;BME280_temperature;BME280_humidity;BME280_pressure;Samples;Min_cycle;Max_cycle;Signal;HPM_P1;HPM_P2
2022/02/24 00:02:02;;;;;;;15.20;5.20;;;;;;;0.12;73.93;97463.00;107838;1273;40067;-81
2022/02/24 00:04:33;;;;;;;11.20;4.70;;;;;;;0.02;73.97;97461.75;107700;1273;134080;-81
2022/02/24 00:07:05;;;;;;;10.10;4.40;;;;;;;-0.02;74.20;97459.14;105512;1273;2011906;-81
2022/02/24 00:09:36;;;;;;;10.00;4.20;;;;;;;-0.03;74.36;97452.31;107748;1273;109281;-81
2022/02/24 00:12:09;;;;;;;11.60;3.50;;;;;;;-0.12;74.31;97455.00;107861;1272;32741;-81
2022/02/24 00:14:40;;;;;;;12.30;4.90;;;;;;;-0.19;75.06;97455.70;107852;1273;78627;-81
2022/02/24 00:17:11;;;;;;;12.70;4.90;;;;;;;-0.26;75.17;97460.34;106754;1273;1384165;-81
2022/02/24 00:19:42;;;;;;;11.40;4.70;;;;;;;-0.26;75.19;97458.64;107770;1273;95364;-81
2022/02/24 00:22:13;;;;;;;13.10;4.80;;;;;;;-0.19;75.51;97453.65;107777;1273;42410;-81
2022/02/24 00:24:45;;;;;;;12.90;4.30;;;;;;;-0.19;75.41;97458.06;107828;1273;34961;-82
2022/02/24 00:27:16;;;;;;;14.80;5.10;;;;;;;-0.20;75.57;97460.02;107676;1273;92290;-81
2022/02/24 00:29:48;;;;;;;16.90;5.90;;;;;;;-0.30;75.67;97459.78;107688;1273;147061;-81
2022/02/24 00:32:19;;;;;;;11.80;4.40;;;;;;;-0.33;75.66;97464.52;107553;1273;99516;-81
2022/02/24 00:34:50;;;;;;;15.60;5.00;;;;;;;-0.33;75.82;97461.73;107457;1273;117052;-81
2022/02/24 00:37:21;;;;;;;15.10;4.60;;;;;;;-0.31;75.72;97460.29;107404;1273;99166;-81
2022/02/24 00:39:52;;;;;;;12.60;5.50;;;;;;;-0.35;75.83;97455.33;107530;1273;103270;-82
2022/02/24 00:42:23;;;;;;;12.40;5.50;;;;;;;-0.34;76.23;97452.65;107389;1273;142553;-81
2022/02/24 00:44:54;;;;;;;14.20;5.60;;;;;;;-0.43;76.13;97443.02;107409;1273;122623;-81
2022/02/24 00:47:26;;;;;;;12.00;5.60;;;;;;;-0.47;76.19;97438.56;107367;1273;128306;-82
2022/02/24 00:49:57;;;;;;;13.80;6.10;;;;;;;-0.45;76.19;97437.45;107618;1273;104699;-81
2022/02/24 00:52:28;;;;;;;18.70;6.20;;;;;;;-0.43;76.73;97433.54;107584;1273;110920;-81
2022/02/24 00:55:02;;;;;;;10.30;5.10;;;;;;;-0.40;76.64;97432.90;107580;1273;145107;-81
2022/02/24 00:57:33;;;;;;;11.10;5.20;;;;;;;-0.39;76.55;97432.95;107406;1273;138209;-81
2022/02/24 01:00:04;;;;;;;12.80;5.80;;;;;;;-0.38;76.73;97431.08;107633;1273;168836;-81
2022/02/24 01:02:36;;;;;;;16.10;5.40;;;;;;;-0.35;76.83;97426.59;107744;1273;117003;-81
2022/02/24 01:05:08;;;;;;;11.90;5.40;;;;;;;-0.34;77.13;97423.11;107791;1273;35182;-81
2022/02/24 01:07:39;;;;;;;14.90;5.40;;;;;;;-0.31;76.86;97422.28;107719;1273;95939;-81
2022/02/24 01:10:11;;;;;;;12.50;5.30;;;;;;;-0.33;77.12;97420.00;107657;1275;122433;-81
2022/02/24 01:12:42;;;;;;;12.50;5.00;;;;;;;-0.32;77.21;97419.60;107658;1274;139378;-81
2022/02/24 01:15:13;;;;;;;14.80;5.50;;;;;;;-0.29;77.42;97417.66;107528;1274;158059;-81
2022/02/24 01:17:45;;;;;;;11.30;5.20;;;;;;;-0.27;77.18;97416.27;107675;1273;132920;-81
2022/02/24 01:20:16;;;;;;;14.50;5.50;;;;;;;-0.27;77.46;97418.81;107880;1273;31354;-81
2022/02/24 01:22:47;;;;;;;17.30;6.50;;;;;;;-0.23;77.24;97418.00;107840;1273;41902;-82
2022/02/24 01:25:19;;;;;;;15.10;5.40;;;;;;;-0.18;77.47;97418.39;107639;1273;127663;-81
2022/02/24 01:27:52;;;;;;;14.60;5.70;;;;;;;-0.20;77.27;97423.14;107782;1273;92418;-82
2022/02/24 01:30:23;;;;;;;13.80;5.40;;;;;;;-0.25;77.20;97422.23;107685;1273;135215;-81
2022/02/24 01:32:56;;;;;;;11.30;5.00;;;;;;;-0.29;77.02;97423.72;107682;1274;35717;-82
2022/02/24 01:35:27;;;;;;;13.10;6.00;;;;;;;-0.27;77.63;97426.63;106342;1274;1706636;-82
2022/02/24 01:37:58;;;;;;;13.60;5.40;;;;;;;-0.27;77.66;97432.43;107566;1273;175888;-82
2022/02/24 01:40:31;;;;;;;15.60;5.40;;;;;;;-0.26;77.65;97431.44;107824;1274;100485;-82
2022/02/24 01:43:05;;;;;;;16.90;5.70;;;;;;;-0.31;77.56;97436.55;107843;1274;78523;-82
2022/02/24 01:45:36;;;;;;;16.60;5.40;;;;;;;-0.37;77.56;97435.84;106376;1274;1819552;-81
2022/02/24 01:48:07;;;;;;;12.10;5.80;;;;;;;-0.40;77.56;97437.46;106860;1273;1263945;-81
2022/02/24 01:50:39;;;;;;;15.80;5.50;;;;;;;-0.38;77.76;97437.23;107689;1273;136390;-81
2022/02/24 01:53:10;;;;;;;16.20;6.00;;;;;;;-0.39;77.56;97433.63;107690;1273;100159;-81
2022/02/24 01:55:42;;;;;;;11.10;6.00;;;;;;;-0.35;77.74;97437.73;106444;1273;1753791;-81
2022/02/24 01:58:13;;;;;;;15.10;5.70;;;;;;;-0.34;77.81;97435.26;107875;1273;34762;-81
2022/02/24 02:00:44;;;;;;;10.70;4.10;;;;;;;-0.29;77.87;97431.77;107820;1273;31943;-81
2022/02/24 02:03:15;;;;;;;13.10;4.90;;;;;;;-0.23;77.79;97431.05;107662;1273;130338;-82
2022/02/24 02:05:47;;;;;;;12.60;4.50;;;;;;;-0.23;77.64;97440.24;106356;1273;1773736;-82
2022/02/24 02:08:19;;;;;;;14.60;6.20;;;;;;;-0.27;77.64;97437.45;107843;1273;29537;-81
2022/02/24 02:10:50;;;;;;;13.50;5.30;;;;;;;-0.27;77.53;97436.56;107678;1273;182423;-82
2022/02/24 02:13:21;;;;;;;16.20;5.50;;;;;;;-0.23;77.69;97440.04;106883;1273;1289601;-81
2022/02/24 02:15:54;;;;;;;15.40;4.70;;;;;;;-0.25;77.66;97435.91;107809;1274;36697;-81
2022/02/24 02:18:25;;;;;;;11.70;4.80;;;;;;;-0.22;77.74;97440.04;107677;1273;134657;-81
2022/02/24 02:20:56;;;;;;;10.20;4.50;;;;;;;-0.21;77.54;97440.52;107707;1273;132515;-82
2022/02/24 02:23:27;;;;;;;11.30;4.80;;;;;;;-0.23;77.62;97440.44;107804;1273;112029;-82
2022/02/24 02:25:58;;;;;;;14.10;5.00;;;;;;;-0.22;77.71;97443.57;107896;1273;36330;-82
2022/02/24 02:28:29;;;;;;;13.60;5.30;;;;;;;-0.23;77.70;97443.56;107772;1273;98235;-82
2022/02/24 02:31:00;;;;;;;15.50;5.10;;;;;;;-0.26;77.63;97440.10;107804;1274;90815;-81
2022/02/24 02:33:31;;;;;;;14.00;5.20;;;;;;;-0.23;77.64;97443.69;107758;1273;34307;-81
2022/02/24 02:36:02;;;;;;;10.90;4.70;;;;;;;-0.26;77.62;97443.42;107889;1273;35973;-82
2022/02/24 02:38:32;;;;;;;11.40;4.60;;;;;;;-0.25;77.67;97439.23;107605;1274;133885;-81
2022/02/24 02:41:03;;;;;;;13.90;4.60;;;;;;;-0.20;77.50;97444.14;106482;1274;1637019;-81
2022/02/24 02:43:34;;;;;;;10.80;4.70;;;;;;;-0.18;77.50;97439.63;107800;1274;35770;-81
2022/02/24 02:46:05;;;;;;;11.40;3.90;;;;;;;-0.18;77.42;97441.48;107816;1274;50698;-81
2022/02/24 02:48:36;;;;;;;13.40;4.70;;;;;;;-0.20;77.35;97437.57;107723;1273;126010;-82
2022/02/24 02:51:07;;;;;;;10.40;4.70;;;;;;;-0.26;77.55;97441.14;106103;1273;2296262;-81
2022/02/24 02:53:38;;;;;;;13.40;5.00;;;;;;;-0.34;77.38;97440.87;107688;1273;108156;-81
2022/02/24 02:56:09;;;;;;;12.70;5.20;;;;;;;-0.40;77.32;97438.83;106095;1274;2168420;-81
2022/02/24 02:58:40;;;;;;;12.70;5.00;;;;;;;-0.41;77.38;97437.26;107766;1274;82189;-82
2022/02/24 03:01:12;;;;;;;9.70;4.70;;;;;;;-0.45;77.31;97431.96;106783;1273;1283282;-82
2022/02/24 03:03:42;;;;;;;11.10;4.10;;;;;;;-0.47;77.48;97436.08;106524;1273;1758029;-82
2022/02/24 03:06:13;;;;;;;15.00;5.30;;;;;;;-0.48;77.64;97441.52;107672;1274;112346;-81
2022/02/24 03:08:45;;;;;;;11.00;4.40;;;;;;;-0.46;77.72;97441.17;107733;1275;178891;-82
2022/02/24 03:11:16;;;;;;;14.80;4.50;;;;;;;-0.49;77.78;97438.55;107837;1274;47329;-82
2022/02/24 03:13:47;;;;;;;11.20;4.30;;;;;;;-0.51;77.73;97439.86;106497;1274;1821792;-81
2022/02/24 03:16:17;;;;;;;10.90;4.30;;;;;;;-0.48;78.03;97437.75;107825;1274;50498;-82
2022/02/24 03:18:48;;;;;;;11.70;4.10;;;;;;;-0.43;78.10;97435.70;107703;1273;147240;-82
2022/02/24 03:21:20;;;;;;;10.10;4.10;;;;;;;-0.40;78.14;97436.39;107741;1273;125628;-82
2022/02/24 03:23:51;;;;;;;12.60;4.70;;;;;;;-0.40;78.26;97433.10;107823;1273;34109;-81
2022/02/24 03:26:22;;;;;;;13.60;3.90;;;;;;;-0.38;78.15;97435.80;107826;1273;50383;-82
2022/02/24 03:28:54;;;;;;;13.70;4.50;;;;;;;-0.38;77.76;97435.20;107613;1273;181679;-82
2022/02/24 03:31:24;;;;;;;8.70;3.10;;;;;;;-0.40;78.15;97439.71;107638;1273;133204;-81
2022/02/24 03:33:57;;;;;;;12.00;4.60;;;;;;;-0.44;77.94;97437.05;107737;1273;119920;-82
2022/02/24 03:36:28;;;;;;;9.90;4.10;;;;;;;-0.44;77.97;97428.92;107730;1273;138468;-82
2022/02/24 03:39:00;;;;;;;10.10;4.40;;;;;;;-0.44;77.95;97427.23;107950;1273;32328;-82
2022/02/24 03:41:30;;;;;;;12.30;3.80;;;;;;;-0.45;77.86;97426.83;107652;1273;132290;-82
2022/02/24 03:44:02;;;;;;;10.30;4.00;;;;;;;-0.48;78.06;97420.33;106825;1273;1329436;-81
2022/02/24 03:46:33;;;;;;;10.60;4.20;;;;;;;-0.53;77.95;97416.52;106678;1274;1568673;-81
2022/02/24 03:49:04;;;;;;;11.90;4.40;;;;;;;-0.59;78.38;97419.83;107515;1274;101050;-82
2022/02/24 03:51:35;;;;;;;14.10;4.50;;;;;;;-0.63;78.33;97420.48;107504;1273;94495;-81
2022/02/24 03:54:06;;;;;;;16.20;5.10;;;;;;;-0.67;78.20;97424.73;107487;1274;100059;-81
2022/02/24 03:56:37;;;;;;;13.90;5.20;;;;;;;-0.65;78.69;97421.02;107396;1274;125660;-82
2022/02/24 03:59:08;;;;;;;11.10;4.50;;;;;;;-0.67;78.51;97416.25;107507;1273;101627;-82
2022/02/24 04:01:39;;;;;;;10.80;5.00;;;;;;;-0.70;78.73;97413.14;107588;1274;124885;-82
2022/02/24 04:04:12;;;;;;;14.70;7.00;;;;;;;-0.67;78.48;97410.59;107348;1274;118806;-81
2022/02/24 04:06:44;;;;;;;11.90;7.20;;;;;;;-0.67;78.67;97409.44;107443;1274;108043;-82
2022/02/24 04:09:15;;;;;;;14.40;6.50;;;;;;;-0.67;78.62;97405.52;107480;1274;95002;-81
2022/02/24 04:11:45;;;;;;;12.70;5.00;;;;;;;-0.70;78.58;97402.56;107454;1274;132105;-81
2022/02/24 04:14:17;;;;;;;16.00;4.60;;;;;;;-0.71;78.70;97398.50;107520;1273;93004;-81
2022/02/24 04:16:48;;;;;;;7.60;4.00;;;;;;;-0.72;78.59;97397.31;107425;1274;110873;-81
2022/02/24 04:19:19;;;;;;;12.50;4.40;;;;;;;-0.68;79.07;97388.95;107605;1273;94211;-82
2022/02/24 04:21:51;;;;;;;9.10;3.60;;;;;;;-0.65;78.90;97382.66;107427;1274;174854;-82
2022/02/24 04:24:22;;;;;;;11.80;3.70;;;;;;;-0.64;78.76;97381.05;107423;1274;123689;-82
2022/02/24 04:26:53;;;;;;;12.00;5.00;;;;;;;-0.62;78.86;97382.15;107443;1274;143372;-82
2022/02/24 04:29:24;;;;;;;7.30;3.40;;;;;;;-0.58;78.72;97381.36;107562;1273;130353;-81
2022/02/24 04:31:55;;;;;;;15.20;4.40;;;;;;;-0.60;78.83;97385.20;107420;1274;131205;-82
2022/02/24 04:34:26;;;;;;;8.70;4.40;;;;;;;-0.61;78.85;97384.27;107379;1274;126771;-82
2022/02/24 04:36:57;;;;;;;13.80;4.30;;;;;;;-0.57;78.97;97384.02;107403;1274;120182;-82
2022/02/24 04:39:29;;;;;;;9.10;4.10;;;;;;;-0.57;78.76;97386.27;107454;1274;188382;-82
2022/02/24 04:42:00;;;;;;;9.50;3.80;;;;;;;-0.61;78.95;97390.89;107553;1274;123277;-81
2022/02/24 04:44:31;;;;;;;12.00;4.40;;;;;;;-0.67;78.57;97387.64;107410;1274;152901;-82
2022/02/24 04:47:03;;;;;;;12.90;4.50;;;;;;;-0.71;78.60;97392.67;107287;1274;155148;-81
2022/02/24 04:49:34;;;;;;;11.90;3.70;;;;;;;-0.73;78.55;97391.17;107333;1274;185266;-81
2022/02/24 04:52:06;;;;;;;11.40;4.70;;;;;;;-0.75;78.54;97386.72;107334;1274;177680;-82
2022/02/24 04:54:37;;;;;;;11.50;4.70;;;;;;;-0.79;78.52;97382.33;107582;1274;80128;-82
2022/02/24 04:57:08;;;;;;;6.20;3.10;;;;;;;-0.85;78.48;97376.15;107490;1274;86528;-81
2022/02/24 04:59:40;;;;;;;9.20;3.80;;;;;;;-0.79;78.66;97372.23;107409;1273;112865;-81
2022/02/24 05:02:11;;;;;;;18.10;6.10;;;;;;;-0.67;78.56;97366.57;107494;1274;102641;-82
2022/02/24 05:04:42;;;;;;;9.90;3.70;;;;;;;-0.56;78.50;97364.29;107443;1274;109426;-82
2022/02/24 05:07:13;;;;;;;8.90;3.70;;;;;;;-0.52;78.16;97370.33;107406;1274;115919;-81
2022/02/24 05:09:44;;;;;;;10.80;3.90;;;;;;;-0.53;77.79;97367.36;107789;1273;77498;-82
2022/02/24 05:12:15;;;;;;;11.60;4.10;;;;;;;-0.62;77.66;97371.21;107462;1273;171069;-82
2022/02/24 05:14:46;;;;;;;12.60;4.20;;;;;;;-0.77;77.61;97372.44;107626;1274;90946;-82
2022/02/24 05:17:17;;;;;;;9.80;4.30;;;;;;;-0.89;77.76;97370.73;106849;1274;1164585;-82
2022/02/24 05:19:48;;;;;;;12.60;4.20;;;;;;;-0.96;77.88;97366.56;107692;1274;36173;-81
2022/02/24 05:22:19;;;;;;;12.00;4.50;;;;;;;-1.02;78.08;97363.81;106523;1274;1751846;-82
2022/02/24 05:24:51;;;;;;;11.00;4.00;;;;;;;-1.05;78.34;97357.75;107706;1274;88749;-81
2022/02/24 05:27:22;;;;;;;11.30;3.80;;;;;;;-0.98;78.28;97356.86;107676;1274;137747;-82
2022/02/24 05:29:53;;;;;;;10.70;4.10;;;;;;;-0.96;78.32;97351.44;107667;1274;118440;-82
2022/02/24 05:32:24;;;;;;;13.70;3.70;;;;;;;-0.96;78.22;97349.58;105683;1274;2649914;-82
2022/02/24 05:34:54;;;;;;;7.70;3.70;;;;;;;-0.89;78.02;97352.20;107658;1274;146007;-81
2022/02/24 05:37:26;;;;;;;11.90;4.10;;;;;;;-0.91;78.02;97354.52;107735;1274;33678;-81
2022/02/24 05:39:58;;;;;;;10.80;4.30;;;;;;;-0.94;77.74;97354.14;107722;1274;112116;-82
2022/02/24 05:42:29;;;;;;;7.90;3.50;;;;;;;-0.91;77.82;97358.35;106189;1274;2100704;-81
2022/02/24 05:45:01;;;;;;;9.60;3.20;;;;;;;-0.92;77.46;97359.67;107803;1274;32693;-81
2022/02/24 05:47:31;;;;;;;7.20;4.00;;;;;;;-0.87;77.86;97361.67;107779;1274;50440;-81
2022/02/24 05:50:07;;;;;;;11.70;4.30;;;;;;;-0.78;77.85;97354.66;107719;1274;140358;-81
2022/02/24 05:52:38;;;;;;;10.60;4.40;;;;;;;-0.72;77.49;97357.27;106654;1274;1531571;-81
2022/02/24 05:55:10;;;;;;;6.40;2.60;;;;;;;-0.67;77.31;97354.03;107669;1273;199003;-82
2022/02/24 05:57:43;;;;;;;11.00;4.90;;;;;;;-0.52;77.65;97348.48;107697;1274;123936;-82
2022/02/24 06:00:17;;;;;;;11.40;4.10;;;;;;;0.06;77.50;97344.11;107702;1274;144801;-81
2022/02/24 06:02:48;;;;;;;10.70;4.10;;;;;;;0.70;76.53;97345.90;107800;1274;34326;-82
2022/02/24 06:05:19;;;;;;;13.10;4.40;;;;;;;1.26;75.62;97343.48;106188;1274;2034432;-82
2022/02/24 06:07:50;;;;;;;10.40;4.20;;;;;;;1.86;74.64;97338.98;107817;1274;34164;-81
2022/02/24 06:10:21;;;;;;;12.10;4.00;;;;;;;2.32;72.85;97339.21;107691;1274;125510;-81
2022/02/24 06:12:57;;;;;;;10.50;3.70;;;;;;;2.74;72.28;97337.92;107687;1274;124918;-82
2022/02/24 06:15:28;;;;;;;8.20;3.70;;;;;;;3.36;71.02;97335.04;107614;1274;83839;-82
2022/02/24 06:18:05;;;;;;;11.10;4.30;;;;;;;3.76;69.77;97335.45;107821;1274;90710;-82
2022/02/24 06:20:39;;;;;;;9.30;3.80;;;;;;;4.14;68.71;97333.20;106488;1274;1788197;-81
2022/02/24 06:23:10;;;;;;;9.20;3.90;;;;;;;4.39;67.01;97328.82;107839;1274;31920;-82
2022/02/24 06:25:41;;;;;;;13.20;4.30;;;;;;;4.47;65.59;97327.64;107863;1274;31100;-82
2022/02/24 06:28:12;;;;;;;9.10;3.30;;;;;;;4.64;64.03;97317.19;107603;1274;132566;-82
2022/02/24 06:30:43;;;;;;;11.60;4.00;;;;;;;4.91;64.30;97321.66;106170;1274;2053210;-82
2022/02/24 06:33:14;;;;;;;10.70;4.60;;;;;;;5.79;64.76;97309.09;107797;1273;36264;-82
2022/02/24 06:35:46;;;;;;;10.40;4.30;;;;;;;6.35;63.20;97309.69;107595;1274;159339;-82
2022/02/24 06:38:18;;;;;;;10.50;4.10;;;;;;;6.67;62.30;97305.54;106734;1273;1284854;-82
2022/02/24 06:40:49;;;;;;;10.70;4.10;;;;;;;7.45;62.57;97303.33;107791;1273;36418;-82
2022/02/24 06:43:20;;;;;;;10.90;4.20;;;;;;;7.80;59.88;97303.95;107444;1274;172919;-82
2022/02/24 06:45:51;;;;;;;10.60;4.10;;;;;;;8.30;60.61;97295.02;107519;1273;214787;-83
2022/02/24 06:48:24;;;;;;;10.20;4.20;;;;;;;9.15;58.57;97293.80;106437;1274;1851419;-83
2022/02/24 06:50:55;;;;;;;11.20;4.30;;;;;;;9.55;56.65;97291.14;107588;1273;160650;-83
2022/02/24 06:53:26;;;;;;;11.10;3.50;;;;;;;9.24;53.49;97291.23;106524;1273;1374575;-82
2022/02/24 06:55:57;;;;;;;9.60;3.20;;;;;;;8.47;50.72;97291.48;107752;1273;50645;-83
2022/02/24 06:58:28;;;;;;;10.10;4.00;;;;;;;7.95;51.70;97297.05;107908;1273;39763;-82
2022/02/24 07:01:02;;;;;;;10.60;3.80;;;;;;;8.63;53.52;97292.17;107840;1273;75824;-83
2022/02/24 07:03:33;;;;;;;9.20;3.60;;;;;;;9.25;52.57;97287.63;107793;1273;31959;-82
2022/02/24 07:06:05;;;;;;;7.80;3.30;;;;;;;9.42;51.15;97288.98;107789;1273;35609;-82
2022/02/24 07:08:35;;;;;;;9.80;4.40;;;;;;;9.51;49.31;97278.45;107727;1273;116670;-82
2022/02/24 07:11:07;;;;;;;9.60;4.10;;;;;;;9.15;49.90;97290.69;107793;1273;56595;-82
2022/02/24 07:13:37;;;;;;;10.70;4.30;;;;;;;9.86;50.79;97280.27;106616;1271;1346368;-82
2022/02/24 07:16:09;;;;;;;8.80;4.40;;;;;;;10.20;49.38;97279.13;107754;1273;55337;-82
2022/02/24 07:18:40;;;;;;;9.70;4.00;;;;;;;10.05;47.66;97276.81;105881;1273;2559129;-82
2022/02/24 07:21:11;;;;;;;8.40;4.30;;;;;;;9.72;47.16;97278.77;107683;1273;102115;-83
2022/02/24 07:23:42;;;;;;;9.90;3.80;;;;;;;9.50;46.54;97276.13;104914;1272;2561227;-82
2022/02/24 07:26:14;;;;;;;10.20;3.90;;;;;;;9.24;46.61;97279.16;107692;1273;96187;-83
2022/02/24 07:28:46;;;;;;;10.60;4.70;;;;;;;9.22;46.54;97282.27;106859;1273;1230823;-82
2022/02/24 07:31:18;;;;;;;9.70;4.30;;;;;;;9.49;47.68;97272.77;103175;1273;2170849;-83
2022/02/24 07:33:49;;;;;;;11.90;4.60;;;;;;;10.11;46.32;97267.95;107488;1270;91680;-83
2022/02/24 07:36:20;;;;;;;10.30;4.00;;;;;;;10.11;45.85;97267.46;107406;1273;105401;-83
2022/02/24 07:38:51;;;;;;;10.90;4.10;;;;;;;10.40;44.91;97266.70;107487;1273;133494;-83
2022/02/24 07:41:22;;;;;;;9.80;3.70;;;;;;;10.44;44.29;97267.14;107500;1273;89061;-83
2022/02/24 07:43:53;;;;;;;8.00;3.40;;;;;;;10.61;44.48;97263.27;107327;1273;116104;-83
2022/02/24 07:46:26;;;;;;;8.70;3.20;;;;;;;10.72;42.69;97258.02;107226;1273;131138;-83
2022/02/24 07:48:57;;;;;;;8.30;3.20;;;;;;;10.39;43.98;97261.98;107455;1273;124555;-82
2022/02/24 07:51:28;;;;;;;8.60;3.70;;;;;;;11.12;44.19;97253.55;107508;1273;113431;-83
2022/02/24 07:54:01;;;;;;;9.80;3.90;;;;;;;11.84;43.54;97250.23;107692;1273;117248;-83
2022/02/24 07:56:32;;;;;;;9.70;3.70;;;;;;;12.12;42.77;97249.84;107498;1273;150828;-83
2022/02/24 07:59:04;;;;;;;8.20;4.00;;;;;;;12.50;43.64;97242.64;107490;1273;106876;-82
2022/02/24 08:01:35;;;;;;;9.40;3.90;;;;;;;12.84;41.72;97245.79;107452;1273;108143;-82
2022/02/24 08:04:06;;;;;;;8.60;4.00;;;;;;;12.88;41.36;97245.11;107362;1273;124347;-82
2022/02/24 08:06:37;;;;;;;9.90;4.60;;;;;;;12.97;41.27;97233.83;107552;1271;93683;-82
2022/02/24 08:09:09;;;;;;;11.60;5.00;;;;;;;12.26;40.39;97236.48;107603;1273;170480;-82
2022/02/24 08:11:40;;;;;;;20.30;11.40;;;;;;;11.70;41.03;97244.63;107833;1273;33580;-82
2022/02/24 08:14:11;;;;;;;13.20;7.00;;;;;;;11.65;40.49;97235.66;107628;1273;134600;-82
2022/02/24 08:16:42;;;;;;;21.60;10.30;;;;;;;10.71;39.61;97233.77;107601;1273;164460;-82
2022/02/24 08:19:13;;;;;;;12.40;6.10;;;;;;;9.97;40.65;97228.03;105796;1273;2218227;-83
2022/02/24 08:21:44;;;;;;;19.70;11.20;;;;;;;9.66;42.03;97224.80;107771;1273;49962;-82
2022/02/24 08:24:15;;;;;;;14.00;8.60;;;;;;;10.10;43.86;97221.67;107693;1273;195019;-82
2022/02/24 08:26:46;;;;;;;14.70;6.80;;;;;;;10.95;44.62;97215.13;107638;1273;155445;-82
2022/02/24 08:29:17;;;;;;;12.90;5.60;;;;;;;11.27;42.18;97208.06;107548;1273;153485;-82
2022/02/24 08:31:48;;;;;;;16.90;8.50;;;;;;;10.87;41.17;97202.70;106653;1273;1571478;-82
2022/02/24 08:34:19;;;;;;;9.00;4.10;;;;;;;10.40;42.04;97205.36;107766;1274;33018;-82
2022/02/24 08:36:51;;;;;;;11.80;5.40;;;;;;;9.93;41.48;97202.81;107809;1273;32635;-82
2022/02/24 08:39:23;;;;;;;8.70;3.60;;;;;;;9.54;42.24;97194.27;107901;1273;35577;-82
2022/02/24 08:41:56;;;;;;;9.90;3.50;;;;;;;9.06;41.68;97195.48;107855;1273;30472;-82
2022/02/24 08:44:27;;;;;;;9.80;4.30;;;;;;;8.43;42.82;97194.37;107718;1273;52973;-83
2022/02/24 08:46:58;;;;;;;8.80;3.40;;;;;;;8.09;43.17;97186.39;107741;1273;35483;-82
2022/02/24 08:49:29;;;;;;;8.10;3.80;;;;;;;7.62;44.14;97185.48;107863;1273;31819;-83
2022/02/24 08:52:01;;;;;;;7.90;3.40;;;;;;;7.33;44.67;97183.45;107664;1273;109322;-82
2022/02/24 08:54:32;;;;;;;9.10;3.30;;;;;;;7.07;45.19;97183.98;106802;1273;1289885;-82
2022/02/24 08:57:05;;;;;;;7.60;3.20;;;;;;;7.18;45.91;97183.83;105900;1273;2379345;-81
2022/02/24 08:59:38;;;;;;;8.20;2.70;;;;;;;7.36;45.56;97174.16;107747;1273;48653;-81
2022/02/24 09:02:09;;;;;;;9.00;4.00;;;;;;;7.26;44.66;97174.44;107511;1272;146091;-82
2022/02/24 09:04:40;;;;;;;9.20;4.00;;;;;;;7.20;45.09;97171.73;107638;1273;109916;-82
2022/02/24 09:07:12;;;;;;;9.30;3.50;;;;;;;7.21;44.87;97169.58;107671;1273;90869;-82
2022/02/24 09:09:43;;;;;;;7.00;3.20;;;;;;;7.49;45.24;97168.68;107602;1273;173151;-82
2022/02/24 09:12:14;;;;;;;7.70;3.80;;;;;;;7.64;44.35;97164.17;107577;1273;101817;-82
2022/02/24 09:14:45;;;;;;;11.30;4.10;;;;;;;7.71;44.86;97159.92;106458;1273;1735304;-81
2022/02/24 09:17:17;;;;;;;6.50;3.50;;;;;;;7.84;45.41;97152.80;107797;1273;34527;-82
2022/02/24 09:19:52;;;;;;;7.70;3.80;;;;;;;8.05;44.80;97147.20;107345;1273;174185;-82
2022/02/24 09:22:24;;;;;;;10.20;4.00;;;;;;;7.85;44.75;97149.38;107221;1273;141091;-82
2022/02/24 09:24:54;;;;;;;6.40;3.30;;;;;;;7.58;44.75;97137.51;107399;1273;116574;-82
2022/02/24 09:27:28;;;;;;;9.50;4.10;;;;;;;7.46;45.23;97133.23;107261;1271;190059;-82
2022/02/24 09:29:59;;;;;;;6.10;2.80;;;;;;;7.35;44.68;97123.55;107421;1273;101316;-82
2022/02/24 09:32:31;;;;;;;8.90;3.80;;;;;;;7.10;44.33;97120.80;107376;1273;165641;-82
2022/02/24 09:35:03;;;;;;;9.80;3.80;;;;;;;7.01;45.33;97118.70;107304;1273;152061;-82
2022/02/24 09:37:36;;;;;;;8.00;3.70;;;;;;;7.07;46.02;97120.66;107379;1273;125825;-82
2022/02/24 09:40:11;;;;;;;9.10;3.70;;;;;;;7.17;45.22;97106.39;107379;1273;180429;-82
2022/02/24 09:42:43;;;;;;;9.10;4.00;;;;;;;7.13;45.26;97105.80;107384;1273;106843;-82
2022/02/24 09:45:14;;;;;;;8.70;4.60;;;;;;;7.24;45.40;97099.52;107360;1273;139906;-82
2022/02/24 09:47:46;;;;;;;8.40;3.60;;;;;;;7.24;45.67;97094.19;107476;1273;109002;-82
2022/02/24 09:50:18;;;;;;;11.10;4.60;;;;;;;7.31;44.83;97094.21;107408;1273;122175;-82
2022/02/24 09:52:49;;;;;;;10.90;4.30;;;;;;;7.33;45.00;97083.61;107227;1273;154105;-82
2022/02/24 09:55:20;;;;;;;11.60;5.10;;;;;;;7.39;44.74;97080.09;105863;1273;2165596;-82
2022/02/24 09:57:51;;;;;;;10.20;5.00;;;;;;;7.44;44.29;97075.45;107352;1273;124760;-81
2022/02/24 10:00:22;;;;;;;12.40;5.20;;;;;;;7.45;44.49;97069.96;107286;1273;152881;-82
2022/02/24 10:02:53;;;;;;;10.70;4.50;;;;;;;7.47;44.91;97065.58;107311;1273;172464;-82
2022/02/24 10:05:25;;;;;;;11.20;5.30;;;;;;;7.50;44.64;97061.02;107207;1273;145767;-82
2022/02/24 10:08:09;;;;;;;11.90;4.30;;;;;;;7.56;44.65;97048.66;107337;1273;124861;-82
2022/02/24 10:10:42;;;;;;;9.80;4.20;;;;;;;7.63;44.27;97044.27;107291;1273;148708;-82
2022/02/24 10:13:15;;;;;;;9.60;4.40;;;;;;;7.77;43.37;97043.77;107393;1273;100999;-81
2022/02/24 10:15:53;;;;;;;8.70;3.70;;;;;;;7.91;43.11;97033.34;104720;1273;2218844;-82
2022/02/24 10:18:25;;;;;;;8.20;3.60;;;;;;;7.96;42.70;97026.37;106173;1273;2004755;-82
2022/02/24 10:21:00;;;;;;;8.10;3.70;;;;;;;8.04;42.55;97022.05;104398;1273;2135429;-82
2022/02/24 10:23:36;;;;;;;7.60;3.70;;;;;;;8.11;42.17;97015.03;107507;1273;98322;-82
2022/02/24 10:26:09;;;;;;;8.10;3.90;;;;;;;8.08;41.01;97000.91;107340;1274;122453;-81
2022/02/24 10:28:45;;;;;;;7.80;3.30;;;;;;;8.09;40.94;96999.65;107318;1274;112408;-81
2022/02/24 10:31:19;;;;;;;8.80;3.40;;;;;;;8.14;40.81;97000.98;107332;1273;159689;-81
2022/02/24 10:33:54;;;;;;;8.60;3.30;;;;;;;8.09;40.69;96997.06;107289;1273;163987;-82
2022/02/24 10:36:27;;;;;;;7.40;3.20;;;;;;;8.13;40.73;96992.65;107440;1273;204209;-81
2022/02/24 10:39:04;;;;;;;6.60;3.10;;;;;;;8.10;39.58;96986.35;105846;1273;2145923;-82
2022/02/24 10:41:38;;;;;;;8.80;3.50;;;;;;;8.05;39.24;96985.48;107440;1273;99716;-82
2022/02/24 10:44:18;;;;;;;7.70;4.00;;;;;;;8.04;40.83;96982.67;106314;1273;1376148;-83
2022/02/24 10:46:50;;;;;;;4.90;2.50;;;;;;;8.13;40.53;96981.09;107362;1273;129965;-82
2022/02/24 10:49:35;;;;;;;8.10;3.70;;;;;;;8.20;40.99;96971.75;105852;1273;2017182;-83
2022/02/24 10:52:14;;;;;;;7.30;4.00;;;;;;;8.28;40.84;96974.16;106387;1272;1301433;-82
2022/02/24 10:54:58;;;;;;;7.40;3.40;;;;;;;8.30;39.93;96971.34;107343;1272;170022;-82
2022/02/24 10:57:30;;;;;;;7.90;3.30;;;;;;;8.36;39.26;96962.68;107379;1273;133138;-82
2022/02/24 11:00:02;;;;;;;6.10;2.90;;;;;;;8.43;39.75;96954.70;107395;1273;153585;-82
2022/02/24 11:02:33;;;;;;;6.80;2.90;;;;;;;8.64;39.54;96952.69;107351;1273;187330;-83
2022/02/24 11:05:06;;;;;;;6.80;3.00;;;;;;;8.71;37.23;96950.28;107308;1273;161340;-83
2022/02/24 11:07:40;;;;;;;6.90;2.90;;;;;;;8.70;38.31;96943.52;107336;1274;107435;-83
2022/02/24 11:10:14;;;;;;;6.20;3.00;;;;;;;8.83;37.08;96941.09;107284;1273;210879;-84
2022/02/24 11:12:45;;;;;;;6.70;2.80;;;;;;;8.87;37.61;96939.79;107233;1273;153621;-83
2022/02/24 11:15:16;;;;;;;4.30;2.30;;;;;;;8.85;36.43;96932.90;107178;1273;140363;-84
2022/02/24 11:17:49;;;;;;;6.10;2.60;;;;;;;8.83;36.66;96937.81;105920;1273;2058908;-83
2022/02/24 11:20:21;;;;;;;5.20;2.30;;;;;;;8.91;37.92;96939.02;107071;1271;251916;-83
2022/02/24 11:22:52;;;;;;;6.80;3.40;;;;;;;9.03;38.23;96929.42;107261;1273;155901;-83
2022/02/24 11:25:31;;;;;;;6.00;2.60;;;;;;;9.05;38.80;96917.27;107310;1271;139602;-83
2022/02/24 11:28:06;;;;;;;5.20;2.90;;;;;;;9.05;39.31;96906.85;107386;1273;214148;-83
2022/02/24 11:30:43;;;;;;;8.50;3.60;;;;;;;9.08;39.03;96892.25;107333;1273;183226;-83
2022/02/24 11:33:17;;;;;;;10.90;4.50;;;;;;;9.11;39.19;96892.26;107313;1273;215096;-84
2022/02/24 11:36:06;;;;;;;11.20;4.60;;;;;;;9.28;39.44;96888.23;107228;1273;182636;-83
2022/02/24 11:38:39;;;;;;;11.30;4.60;;;;;;;9.43;39.42;96888.66;107354;1273;115682;-82